createdAt,value
2017-12-02T00:02:18.604Z,98515.20
2017-12-02T00:04:46.942Z,98517.55
2017-12-02T00:07:15.326Z,98517.31
2017-12-02T00:09:43.688Z,98521.85
2017-12-02T00:12:12.172Z,98525.78
2017-12-02T00:14:40.588Z,98527.14
2017-12-02T00:17:08.916Z,98526.09
2017-12-02T00:19:38.048Z,98535.31
2017-12-02T00:22:06.390Z,98540.45
2017-12-02T00:24:35.554Z,98545.95
2017-12-02T00:27:03.976Z,98546.66
2017-12-02T00:29:32.358Z,98547.38
2017-12-02T00:32:01.517Z,98547.61
2017-12-02T00:34:29.927Z,98555.55
2017-12-02T00:36:58.314Z,98556.68
2017-12-02T00:39:27.466Z,98558.79
2017-12-02T00:41:55.826Z,98560.04
2017-12-02T00:44:24.935Z,98557.40
2017-12-02T00:46:55.718Z,98559.45
2017-12-02T00:49:36.256Z,98553.61
2017-12-02T00:52:04.583Z,98561.43
2017-12-02T00:54:32.916Z,98558.11
2017-12-02T00:57:27.417Z,98565.66
2017-12-02T01:06:40.158Z,98559.98
2017-12-02T01:09:38.050Z,98569.55
2017-12-02T01:12:07.189Z,98566.76
2017-12-02T01:14:36.480Z,98572.23
2017-12-02T01:17:07.634Z,98578.67
2017-12-02T01:19:36.009Z,98578.41
2017-12-02T01:22:04.374Z,98582.16
2017-12-02T01:24:32.768Z,98583.03
2017-12-02T01:27:01.125Z,98586.29
2017-12-02T01:29:29.454Z,98592.83
2017-12-02T01:31:57.790Z,98588.57
2017-12-02T01:34:26.115Z,98596.78
2017-12-02T01:36:54.434Z,98599.92
2017-12-02T01:39:22.760Z,98606.98
2017-12-02T01:41:51.084Z,98614.52
2017-12-02T01:44:19.352Z,98620.28
2017-12-02T01:49:34.198Z,98626.37
2017-12-02T01:52:13.432Z,98625.19
2017-12-02T01:54:41.792Z,98632.30
2017-12-02T01:57:10.885Z,98630.02
2017-12-02T01:59:39.239Z,98632.36
2017-12-02T02:02:07.542Z,98630.89
2017-12-02T02:04:35.828Z,98631.57
2017-12-02T02:07:04.105Z,98634.50
2017-12-02T02:09:34.205Z,98631.45
2017-12-02T02:12:07.644Z,98633.86
2017-12-02T02:14:36.795Z,98629.54
2017-12-02T02:17:05.185Z,98638.76
2017-12-02T02:19:33.528Z,98642.02
2017-12-02T02:22:01.868Z,98636.78
2017-12-02T02:24:30.897Z,98636.28
2017-12-02T02:26:59.159Z,98640.80
2017-12-02T02:29:27.424Z,98638.26
2017-12-02T02:31:56.466Z,98640.78
2017-12-02T02:34:24.721Z,98645.64
2017-12-02T02:36:52.993Z,98657.50
2017-12-02T02:39:21.252Z,98659.27
2017-12-02T02:41:49.518Z,98664.94
2017-12-02T02:44:18.539Z,98666.51
2017-12-02T02:46:46.810Z,98672.24
2017-12-02T02:49:15.070Z,98668.90
2017-12-02T02:51:44.106Z,98682.66
2017-12-02T02:54:12.363Z,98678.73
2017-12-02T02:56:40.642Z,98678.81
2017-12-02T02:59:08.901Z,98681.08
2017-12-02T03:01:37.161Z,98677.15
2017-12-02T03:04:06.202Z,98684.41
2017-12-02T03:06:34.450Z,98682.61
2017-12-02T03:09:02.721Z,98683.69
2017-12-02T03:11:30.979Z,98679.84
2017-12-02T03:14:00.009Z,98681.47
2017-12-02T03:16:28.278Z,98674.31
2017-12-02T03:18:56.563Z,98684.78
2017-12-02T03:21:24.842Z,98686.30
2017-12-02T03:23:53.138Z,98696.89
2017-12-02T03:26:21.413Z,98697.47
2017-12-02T03:28:49.712Z,98702.52
2017-12-02T03:31:17.999Z,98707.39
2017-12-02T03:33:47.058Z,98707.88
2017-12-02T03:36:15.338Z,98707.22
2017-12-02T03:38:43.634Z,98707.84
2017-12-02T03:41:11.928Z,98718.00
2017-12-02T03:43:40.980Z,98715.17
2017-12-02T03:46:09.272Z,98719.71
2017-12-02T03:48:37.544Z,98722.84
2017-12-02T03:51:05.832Z,98720.25
2017-12-02T03:53:34.107Z,98723.91
2017-12-02T03:56:02.402Z,98726.66
2017-12-02T03:58:31.450Z,98720.82
2017-12-02T04:00:59.756Z,98728.11
2017-12-02T04:03:28.045Z,98722.50
2017-12-02T04:05:57.095Z,98725.47
2017-12-02T04:08:25.366Z,98724.70
2017-12-02T04:10:53.670Z,98724.20
2017-12-02T04:13:21.946Z,98732.01
2017-12-02T04:15:50.236Z,98729.62
2017-12-02T04:18:19.288Z,98730.25
2017-12-02T04:20:47.564Z,98731.61
2017-12-02T04:23:15.835Z,98728.70
2017-12-02T04:25:44.098Z,98722.14
2017-12-02T04:28:12.370Z,98728.29
2017-12-02T04:30:40.633Z,98733.50
2017-12-02T04:33:08.916Z,98734.91
2017-12-02T04:35:37.169Z,98732.80
2017-12-02T04:38:06.205Z,98740.50
2017-12-02T04:40:34.466Z,98740.72
2017-12-02T04:43:02.731Z,98745.75
2017-12-02T04:45:30.994Z,98746.23
2017-12-02T04:48:00.582Z,98749.55
2017-12-02T04:50:28.842Z,98751.00
2017-12-02T04:52:57.114Z,98748.41
2017-12-02T04:55:25.371Z,98755.38
2017-12-02T04:57:53.643Z,98759.92
2017-12-02T05:00:21.915Z,98763.91
2017-12-02T05:02:50.187Z,98763.67
2017-12-02T05:05:18.448Z,98767.34
2017-12-02T05:07:46.736Z,98768.73
2017-12-02T05:10:14.997Z,98777.14
2017-12-02T05:12:43.258Z,98772.59
2017-12-02T05:15:12.295Z,98770.67
2017-12-02T05:17:41.321Z,98774.75
2017-12-02T05:20:09.590Z,98772.35
2017-12-02T05:22:37.851Z,98771.28
2017-12-02T05:25:06.125Z,98772.81
2017-12-02T05:27:34.381Z,98776.17
2017-12-02T05:30:02.662Z,98777.80
2017-12-02T05:32:30.925Z,98778.84
2017-12-02T05:34:59.222Z,98776.49
2017-12-02T05:37:27.485Z,98776.13
2017-12-02T05:39:55.742Z,98781.31
2017-12-02T05:42:24.014Z,98786.16
2017-12-02T05:44:52.280Z,98788.52
2017-12-02T05:47:21.307Z,98786.37
2017-12-02T05:49:49.571Z,98793.80
2017-12-02T05:52:17.844Z,98798.50
2017-12-02T05:54:46.098Z,98807.95
2017-12-02T05:57:15.147Z,98814.80
2017-12-02T05:59:43.395Z,98816.91
2017-12-02T06:02:11.661Z,98824.19
2017-12-02T06:04:39.932Z,98828.70
2017-12-02T06:07:08.202Z,98828.23
2017-12-02T06:09:36.474Z,98828.33
2017-12-02T06:12:04.743Z,98825.73
2017-12-02T06:14:33.768Z,98829.28
2017-12-02T06:17:02.039Z,98825.45
2017-12-02T06:19:30.295Z,98822.91
2017-12-02T06:21:58.566Z,98822.71
2017-12-02T06:24:27.590Z,98827.64
2017-12-02T06:26:55.853Z,98840.98
2017-12-02T06:29:24.118Z,98833.83
2017-12-02T06:31:52.377Z,98840.88
2017-12-02T06:34:21.409Z,98836.75
2017-12-02T06:36:49.738Z,98848.02
2017-12-02T06:39:18.779Z,98846.86
2017-12-02T06:41:47.034Z,98851.92
2017-12-02T06:44:15.302Z,98848.03
2017-12-02T06:46:43.567Z,98847.36
2017-12-02T06:49:12.599Z,98843.05
2017-12-02T06:51:40.872Z,98842.30
2017-12-02T06:54:09.190Z,98852.27
2017-12-02T06:56:37.446Z,98850.25
2017-12-02T06:59:06.140Z,98854.27
2017-12-02T07:01:35.188Z,98855.41
2017-12-02T07:04:03.450Z,98866.13
2017-12-02T07:06:31.717Z,98865.13
2017-12-02T07:09:00.763Z,98860.30
2017-12-02T07:11:29.027Z,98862.73
2017-12-02T07:13:57.301Z,98870.67
2017-12-02T07:16:25.566Z,98869.38
2017-12-02T07:18:53.853Z,98871.11
2017-12-02T07:21:22.115Z,98870.41
2017-12-02T07:23:50.389Z,98870.52
2017-12-02T07:26:18.661Z,98873.23
2017-12-02T07:28:46.938Z,98874.21
2017-12-02T07:31:15.202Z,98883.48
2017-12-02T07:33:44.238Z,98877.36
2017-12-02T07:36:12.506Z,98884.86
2017-12-02T07:38:40.774Z,98893.55
2017-12-02T07:41:09.041Z,98894.58
2017-12-02T07:43:37.314Z,98899.19
2017-12-02T07:46:05.581Z,98896.69
2017-12-02T07:48:33.853Z,98896.37
2017-12-02T07:51:02.117Z,98900.18
2017-12-02T07:53:31.163Z,98906.08
2017-12-02T07:55:59.429Z,98913.30
2017-12-02T07:58:27.710Z,98917.33
2017-12-02T08:00:56.035Z,98914.11
2017-12-02T08:03:25.086Z,98922.05
2017-12-02T08:05:53.358Z,98918.85
2017-12-02T08:08:21.630Z,98923.05
2017-12-02T08:10:49.895Z,98927.46
2017-12-02T08:13:18.171Z,98925.59
2017-12-02T08:15:46.437Z,98927.57
2017-12-02T08:18:14.712Z,98928.45
2017-12-02T08:20:42.990Z,98929.44
2017-12-02T08:23:11.272Z,98930.16
2017-12-02T08:25:39.543Z,98926.29
2017-12-02T08:28:07.814Z,98931.08
2017-12-02T08:30:36.079Z,98939.00
2017-12-02T08:33:04.354Z,98933.25
2017-12-02T08:35:32.625Z,98947.05
2017-12-02T08:38:01.662Z,98952.06
2017-12-02T08:40:29.926Z,98950.19
2017-12-02T08:42:58.213Z,98946.33
2017-12-02T08:45:26.481Z,98956.37
2017-12-02T08:47:54.758Z,98959.77
2017-12-02T08:50:23.027Z,98962.73
2017-12-02T08:52:51.298Z,98955.27
2017-12-02T08:55:19.562Z,98952.56
2017-12-02T08:57:47.835Z,98957.08
2017-12-02T09:00:16.147Z,98965.23
2017-12-02T09:02:44.424Z,98973.48
2017-12-02T09:05:12.690Z,98970.59
2017-12-02T09:07:40.966Z,98980.43
2017-12-02T09:10:09.242Z,98979.93
2017-12-02T09:12:37.510Z,98981.19
2017-12-02T09:15:05.793Z,98980.00
2017-12-02T09:17:34.065Z,98985.30
2017-12-02T09:20:02.343Z,98984.66
2017-12-02T09:22:30.606Z,98991.52
2017-12-02T09:24:58.879Z,98994.08
2017-12-02T09:27:27.164Z,98991.95
2017-12-02T09:29:55.433Z,98990.34
2017-12-02T09:32:23.706Z,98997.61
2017-12-02T09:34:51.989Z,98993.06
2017-12-02T09:37:20.249Z,98990.59
2017-12-02T09:39:48.535Z,98994.33
2017-12-02T09:42:16.798Z,98996.59
2017-12-02T09:44:45.075Z,98994.36
2017-12-02T09:47:13.347Z,98995.13
2017-12-02T09:49:41.627Z,98989.80
2017-12-02T09:52:09.906Z,98988.44
2017-12-02T09:54:38.190Z,98984.35
2017-12-02T09:57:06.455Z,98994.77
2017-12-02T09:59:34.739Z,98990.83
2017-12-02T10:02:03.005Z,98999.49
2017-12-02T10:04:31.283Z,98994.58
2017-12-02T10:06:59.562Z,98996.34
2017-12-02T10:09:27.835Z,98991.55
2017-12-02T10:11:56.107Z,98987.19
2017-12-02T10:14:24.390Z,98988.75
2017-12-02T10:16:52.652Z,98985.34
2017-12-02T10:19:20.934Z,98990.23
2017-12-02T10:21:49.208Z,98989.31
2017-12-02T10:24:17.483Z,98993.96
2017-12-02T10:26:45.752Z,98991.80
2017-12-02T10:29:14.792Z,98992.63
2017-12-02T10:31:43.056Z,98997.98
2017-12-02T10:34:11.329Z,98994.27
2017-12-02T10:36:39.600Z,98989.18
2017-12-02T10:39:07.877Z,98989.61
2017-12-02T10:41:36.142Z,98993.09
2017-12-02T10:44:04.423Z,98992.02
2017-12-02T10:46:32.681Z,98986.89
2017-12-02T10:49:00.953Z,98980.89
2017-12-02T10:51:29.222Z,98977.85
2017-12-02T10:53:58.264Z,98974.20
2017-12-02T10:56:26.536Z,98972.38
2017-12-02T10:58:54.813Z,98967.08
2017-12-02T11:01:23.089Z,98970.56
2017-12-02T11:03:51.363Z,98965.20
2017-12-02T11:06:19.636Z,98967.80
2017-12-02T11:08:47.902Z,98958.05
2017-12-02T11:11:16.179Z,98956.87
2017-12-02T11:13:44.448Z,98954.75
2017-12-02T11:16:12.729Z,98957.84
2017-12-02T11:18:40.999Z,98962.66
2017-12-02T11:21:09.275Z,98958.17
2017-12-02T11:23:37.568Z,98963.30
2017-12-02T11:26:05.849Z,98964.62
2017-12-02T11:28:34.108Z,98957.50
2017-12-02T11:31:02.393Z,98955.13
2017-12-02T11:33:30.648Z,98957.46
2017-12-02T11:35:58.919Z,98952.97
2017-12-02T11:38:27.183Z,98959.53
2017-12-02T11:40:56.227Z,98957.71
2017-12-02T11:43:24.510Z,98959.71
2017-12-02T11:45:52.784Z,98957.60
2017-12-02T11:48:21.186Z,98959.66
2017-12-02T11:50:49.658Z,98961.75
2017-12-02T11:53:17.933Z,98954.37
2017-12-02T11:55:46.296Z,98953.17
2017-12-02T11:58:14.646Z,98955.63
2017-12-02T12:00:42.981Z,98954.95
2017-12-02T12:03:12.140Z,98954.14
2017-12-02T12:05:40.504Z,98947.47
2017-12-02T12:11:03.086Z,98947.52
2017-12-02T12:13:31.460Z,98941.08
2017-12-02T12:15:59.827Z,98949.27
2017-12-02T12:18:28.184Z,98940.87
2017-12-02T12:20:57.355Z,98937.80
2017-12-02T12:23:27.074Z,98936.86
2017-12-02T12:25:56.173Z,98938.57
2017-12-02T12:28:25.299Z,98948.00
2017-12-02T12:30:53.672Z,98944.14
2017-12-02T12:33:21.999Z,98934.61
2017-12-02T12:35:50.344Z,98933.20
2017-12-02T12:38:18.698Z,98932.44
2017-12-02T12:40:47.030Z,98932.53
2017-12-02T12:43:15.347Z,98929.69
2017-12-02T12:45:43.744Z,98928.19
2017-12-02T12:48:12.074Z,98915.59
2017-12-02T12:50:41.184Z,98915.10
2017-12-02T12:53:09.596Z,98912.78
2017-12-02T12:55:37.960Z,98913.56
2017-12-02T12:58:06.309Z,98921.40
2017-12-02T13:00:35.418Z,98928.36
2017-12-02T13:03:04.527Z,98921.45
2017-12-02T13:05:32.869Z,98921.13
2017-12-02T13:08:03.004Z,98921.65
2017-12-02T13:10:32.177Z,98929.28
2017-12-02T13:13:00.559Z,98926.66
2017-12-02T13:15:28.906Z,98931.45
2017-12-02T13:17:57.279Z,98933.23
2017-12-02T13:20:25.636Z,98933.24
2017-12-02T13:22:54.024Z,98930.21
2017-12-02T13:25:24.131Z,98930.59
2017-12-02T13:27:52.496Z,98942.62
2017-12-02T13:30:20.860Z,98940.95
2017-12-02T13:32:49.987Z,98946.03
2017-12-02T13:35:18.351Z,98947.05
2017-12-02T13:37:46.719Z,98944.93
2017-12-02T13:40:15.838Z,98944.53
2017-12-02T13:42:44.162Z,98944.03
2017-12-02T13:45:12.501Z,98943.25
2017-12-02T13:47:40.835Z,98937.64
2017-12-02T13:50:09.970Z,98939.83
2017-12-02T13:52:38.331Z,98935.26
2017-12-02T13:55:06.674Z,98934.98
2017-12-02T13:57:35.780Z,98939.24
2017-12-02T14:00:04.935Z,98933.14
2017-12-02T14:02:33.290Z,98942.14
2017-12-02T14:05:01.628Z,98943.11
2017-12-02T14:07:30.782Z,98948.02
2017-12-02T14:09:59.109Z,98948.16
2017-12-02T14:12:28.286Z,98961.41
2017-12-02T14:14:56.626Z,98954.31
2017-12-02T14:17:24.977Z,98958.89
2017-12-02T14:19:53.318Z,98961.75
2017-12-02T14:22:21.677Z,98967.54
2017-12-02T14:24:50.010Z,98973.23
2017-12-02T14:27:18.356Z,98979.35
2017-12-02T14:29:46.699Z,98976.64
2017-12-02T14:32:15.050Z,98977.23
2017-12-02T14:34:43.414Z,98980.05
2017-12-02T14:37:12.502Z,98981.14
2017-12-02T14:39:41.665Z,98976.59
2017-12-02T14:42:09.990Z,98983.10
2017-12-02T14:44:39.113Z,98988.56
2017-12-02T14:47:07.442Z,98994.70
2017-12-02T14:49:35.786Z,98995.83
2017-12-02T14:52:04.117Z,98993.75
2017-12-02T14:54:32.521Z,98995.74
2017-12-02T14:57:00.858Z,98995.73
2017-12-02T14:59:30.017Z,99005.06
2017-12-02T15:01:58.373Z,98998.15
2017-12-02T15:04:26.722Z,99001.44
2017-12-02T15:06:55.047Z,99005.30
2017-12-02T15:09:24.480Z,99009.72
2017-12-02T15:11:53.592Z,99004.53
2017-12-02T15:14:22.715Z,99008.36
2017-12-02T15:16:51.085Z,99014.23
2017-12-02T15:19:19.419Z,99004.13
2017-12-02T15:21:48.557Z,99013.20
2017-12-02T15:24:16.878Z,99009.64
2017-12-02T15:26:45.219Z,99000.69
2017-12-02T15:29:13.560Z,99001.97
2017-12-02T15:31:42.701Z,99004.85
2017-12-02T15:34:11.052Z,99001.75
2017-12-02T15:36:40.144Z,99000.28
2017-12-02T15:39:09.275Z,99011.59
2017-12-02T15:41:37.578Z,99009.55
2017-12-02T15:44:05.885Z,99006.95
2017-12-02T15:46:34.965Z,99009.77
2017-12-02T15:49:03.286Z,99010.13
2017-12-02T15:51:31.601Z,99011.45
2017-12-02T15:53:59.943Z,99015.29
2017-12-02T15:56:28.277Z,99018.97
2017-12-02T15:58:56.589Z,99019.79
2017-12-02T16:01:24.896Z,99017.39
2017-12-02T16:03:53.218Z,99018.69
2017-12-02T16:06:22.295Z,99018.75
2017-12-02T16:08:50.589Z,99022.39
2017-12-02T16:11:19.669Z,99023.02
2017-12-02T16:13:47.989Z,99018.61
2017-12-02T16:16:16.300Z,99015.27
2017-12-02T16:18:44.591Z,99015.60
2017-12-02T16:21:12.939Z,99015.83
2017-12-02T16:23:41.234Z,99020.78
2017-12-02T16:26:09.555Z,99026.86
2017-12-02T16:28:37.871Z,99031.02
2017-12-02T16:31:06.198Z,99035.62
2017-12-02T16:33:35.265Z,99033.06
2017-12-02T16:36:03.576Z,99040.41
2017-12-02T16:38:31.880Z,99036.54
2017-12-02T16:41:00.185Z,99032.69
2017-12-02T16:43:28.476Z,99037.78
2017-12-02T16:45:56.772Z,99037.57
2017-12-02T16:48:25.832Z,99033.41
2017-12-02T16:50:54.132Z,99030.86
2017-12-02T16:53:22.431Z,99033.25
2017-12-02T16:55:51.500Z,99030.26
2017-12-02T16:58:19.835Z,99030.45
2017-12-02T17:00:48.138Z,99038.13
2017-12-02T17:03:16.459Z,99039.59
2017-12-02T17:05:45.521Z,99047.20
2017-12-02T17:08:13.832Z,99043.93
2017-12-02T17:10:42.137Z,99044.78
2017-12-02T17:13:10.433Z,99049.97
2017-12-02T17:15:38.754Z,99041.81
2017-12-02T17:18:07.043Z,99050.64
2017-12-02T17:20:35.352Z,99056.95
2017-12-02T17:23:03.652Z,99054.57
2017-12-02T17:25:31.963Z,99045.87
2017-12-02T17:28:00.263Z,99048.09
2017-12-02T17:30:28.584Z,99049.97
2017-12-02T17:32:56.922Z,99053.75
2017-12-02T17:35:25.222Z,99061.52
2017-12-02T17:37:54.281Z,99063.52
2017-12-02T17:40:22.603Z,99071.75
2017-12-02T17:42:50.897Z,99078.98
2017-12-02T17:45:19.200Z,99071.05
2017-12-02T17:47:47.496Z,99074.09
2017-12-02T17:50:15.795Z,99077.73
2017-12-02T17:52:44.104Z,99074.12
2017-12-02T17:55:12.402Z,99075.66
2017-12-02T17:57:40.721Z,99075.17
2017-12-02T18:00:09.030Z,99072.11
2017-12-02T18:02:38.113Z,99074.86
2017-12-02T18:05:06.464Z,99074.84
2017-12-02T18:07:34.763Z,99080.73
2017-12-02T18:10:03.094Z,99081.72
2017-12-02T18:12:32.376Z,99092.42
2017-12-02T18:15:00.731Z,99091.23
2017-12-02T18:17:29.019Z,99096.55
2017-12-02T18:20:00.350Z,99095.84
2017-12-02T18:22:28.690Z,99086.75
2017-12-02T18:24:56.998Z,99091.27
2017-12-02T18:27:25.290Z,99087.39
2017-12-02T18:29:54.378Z,99088.81
2017-12-02T18:32:22.736Z,99099.86
2017-12-02T18:34:52.181Z,99102.83
2017-12-02T18:37:21.280Z,99102.66
2017-12-02T18:39:50.393Z,99105.59
2017-12-02T18:42:18.689Z,99104.61
2017-12-02T18:44:47.018Z,99101.42
2017-12-02T18:47:16.066Z,99104.57
2017-12-02T18:49:46.106Z,99102.01
2017-12-02T18:52:14.378Z,99106.98
2017-12-02T18:54:42.748Z,99107.19
2017-12-02T18:57:11.103Z,99097.91
2017-12-02T18:59:40.356Z,99107.23
2017-12-02T19:02:10.627Z,99098.48
2017-12-02T19:04:48.864Z,99104.79
2017-12-02T19:07:19.227Z,99099.44
2017-12-02T19:09:47.581Z,99098.53
2017-12-02T19:12:16.730Z,99105.36
2017-12-02T19:14:47.269Z,99100.91
2017-12-02T19:17:16.197Z,99097.20
2017-12-02T19:19:45.822Z,99105.92
2017-12-02T19:22:14.191Z,99108.51
2017-12-02T19:24:42.528Z,99108.47
2017-12-02T19:27:14.572Z,99110.45
2017-12-02T19:29:42.926Z,99109.92
2017-12-02T19:32:13.592Z,99112.39
2017-12-02T19:34:41.963Z,99107.30
2017-12-02T19:37:14.676Z,99108.16
2017-12-02T19:39:43.066Z,99109.33
2017-12-02T19:42:30.958Z,99108.64
2017-12-02T19:44:59.360Z,99104.79
2017-12-02T19:47:27.690Z,99112.73
2017-12-02T19:49:56.014Z,99113.76
2017-12-02T19:52:24.359Z,99096.21
2017-12-02T19:54:52.695Z,99097.27
2017-12-02T19:57:21.028Z,99107.68
2017-12-02T19:59:49.390Z,99102.23
2017-12-02T20:02:20.437Z,99102.80
2017-12-02T20:04:48.834Z,99105.83
2017-12-02T20:07:17.191Z,99102.63
2017-12-02T20:12:20.434Z,99105.17
2017-12-02T20:14:48.820Z,99106.95
2017-12-02T20:17:17.194Z,99108.55
2017-12-02T20:19:45.549Z,99106.14
2017-12-02T20:22:13.886Z,99107.09
2017-12-02T20:24:42.916Z,99109.80
2017-12-02T20:27:22.894Z,99106.51
2017-12-02T20:29:51.246Z,99101.80
2017-12-02T20:32:19.605Z,99090.58
2017-12-02T20:34:47.939Z,99089.41
2017-12-02T20:37:16.286Z,99085.66
2017-12-02T20:39:44.598Z,99078.48
2017-12-02T20:42:12.870Z,99078.22
2017-12-02T20:44:41.138Z,99080.42
2017-12-02T20:47:09.428Z,99083.93
2017-12-02T20:49:40.912Z,99077.30
2017-12-02T20:52:09.206Z,99081.54
2017-12-02T20:54:37.533Z,99075.41
2017-12-02T20:57:06.591Z,99078.95
2017-12-02T20:59:35.110Z,99079.47
2017-12-02T21:02:11.178Z,99074.37
2017-12-02T21:04:40.264Z,99072.95
2017-12-02T21:07:10.485Z,99066.98
2017-12-02T21:09:38.985Z,99072.22
2017-12-02T21:12:08.223Z,99070.18
2017-12-02T21:14:36.613Z,99063.66
2017-12-02T21:17:05.041Z,99067.94
2017-12-02T21:19:33.414Z,99073.39
2017-12-02T21:22:03.274Z,99077.19
2017-12-02T21:24:44.231Z,99078.48
2017-12-02T21:31:13.118Z,99082.67
2017-12-02T21:37:50.409Z,99070.87
2017-12-02T21:40:20.083Z,99070.31
2017-12-02T21:42:49.597Z,99078.20
2017-12-02T21:45:18.038Z,99075.66
2017-12-02T21:47:46.475Z,99080.21
2017-12-02T21:50:18.773Z,99070.84
2017-12-02T21:52:55.115Z,99075.25
2017-12-02T21:55:45.288Z,99071.97
2017-12-02T21:58:19.345Z,99076.94
2017-12-02T22:46:46.114Z,99077.29
2017-12-02T22:49:14.444Z,99078.98
2017-12-02T22:51:43.573Z,99079.73
2017-12-02T22:54:12.979Z,99082.61
2017-12-02T22:56:41.326Z,99070.84
2017-12-02T22:59:10.445Z,99074.91
2017-12-02T23:01:38.805Z,99081.17
2017-12-02T23:04:07.910Z,99083.67
2017-12-02T23:06:36.296Z,99084.88
2017-12-02T23:09:04.612Z,99083.42
2017-12-02T23:11:32.946Z,99087.88
2017-12-02T23:14:01.333Z,99082.62
2017-12-02T23:16:29.684Z,99091.05
2017-12-02T23:18:58.766Z,99090.56
2017-12-02T23:21:27.214Z,99089.09
2017-12-02T23:23:58.818Z,99090.38
2017-12-02T23:26:27.919Z,99087.62
2017-12-02T23:31:36.830Z,99084.89
2017-12-02T23:34:06.107Z,99084.55
2017-12-02T23:36:34.461Z,99082.68
2017-12-02T23:39:02.849Z,99081.48
2017-12-02T23:41:32.049Z,99077.24
2017-12-02T23:44:02.600Z,99073.84
2017-12-02T23:46:30.987Z,99063.01
2017-12-02T23:48:59.356Z,99065.60
2017-12-02T23:51:27.711Z,99057.63
2017-12-02T23:53:56.093Z,99050.75
2017-12-02T23:56:24.473Z,99058.78
2017-12-02T23:58:52.811Z,99053.05
